Time,TemperatureF,DewpointF,PressureIn,WindDirection,WindDirectionDegrees,WindSpeedMPH,WindSpeedGustMPH,Humidity,HourlyPrecipIn,Conditions,Clouds,dailyrainin,SoftwareType,DateUTC
2013-03-17 00:00:00,20.5,-0.5,29.85,NNW,338,2.5,2.5,39,0.00,,,0.00,VWS V14.01,2013-03-17 04:00:00,
2013-03-17 00:06:00,23.7,0.1,29.82,NNW,338,2.7,3.1,35,0.00,,,0.00,VWS V14.01,2013-03-17 04:06:00,
2013-03-17 00:11:00,23.5,-0.1,29.82,NNW,338,2.9,2.9,35,0.00,,,0.00,VWS V14.01,2013-03-17 04:11:00,
2013-03-17 00:16:00,23.2,-0.4,29.85,NNW,338,2.0,2.5,35,0.00,,,0.00,VWS V14.01,2013-03-17 04:16:00,
2013-03-17 00:21:00,22.8,-0.1,29.85,NNW,338,0.0,2.5,36,0.00,,,0.00,VWS V14.01,2013-03-17 04:21:00,
2013-03-17 00:26:00,22.8,-0.1,29.85,NNW,338,2.2,2.2,36,0.00,,,0.00,VWS V14.01,2013-03-17 04:26:00,
2013-03-17 00:30:00,19.6,0.7,29.85,NNW,338,0.0,0.0,43,0.00,,,0.00,VWS V14.01,2013-03-17 04:30:00,
2013-03-17 00:32:00,22.5,-0.4,29.85,NNW,338,1.6,1.6,36,0.00,,,0.00,VWS V14.01,2013-03-17 04:32:00,
2013-03-17 00:37:00,21.7,-1.1,29.85,NNW,338,0.0,0.0,36,0.00,,,0.00,VWS V14.01,2013-03-17 04:37:00,
2013-03-17 00:42:00,21.2,-1.0,29.85,NNW,338,0.0,0.0,37,0.00,,,0.00,VWS V14.01,2013-03-17 04:42:00,
2013-03-17 00:47:00,20.8,-1.3,29.85,NNW,338,0.0,0.0,37,0.00,,,0.00,VWS V14.01,2013-03-17 04:47:00,
2013-03-17 00:52:00,20.8,-1.3,29.85,NNW,338,0.0,0.0,37,0.00,,,0.00,VWS V14.01,2013-03-17 04:52:00,
2013-03-17 00:57:00,20.5,1.5,29.85,NNW,338,2.9,2.9,43,0.00,,,0.00,VWS V14.01,2013-03-17 04:57:00,
2013-03-17 01:00:00,18.1,0.4,29.88,NNW,338,0.0,0.0,45,0.00,,,0.00,VWS V14.01,2013-03-17 05:00:00,
2013-03-17 01:02:00,20.7,3.2,29.85,NNW,338,2.7,2.9,46,0.00,,,0.00,VWS V14.01,2013-03-17 05:02:00,
2013-03-17 01:07:00,20.7,2.7,29.85,NNW,338,2.9,2.9,45,0.00,,,0.00,VWS V14.01,2013-03-17 05:07:00,
2013-03-17 01:12:00,20.7,2.2,29.85,NNW,338,1.1,1.3,44,0.00,,,0.00,VWS V14.01,2013-03-17 05:12:00,
2013-03-17 01:17:00,20.3,1.4,29.85,NNW,338,0.0,0.0,43,0.00,,,0.00,VWS V14.01,2013-03-17 05:17:00,
2013-03-17 01:22:00,19.9,1.1,29.85,NNW,338,0.0,0.0,43,0.00,,,0.00,VWS V14.01,2013-03-17 05:22:00,
2013-03-17 01:27:00,19.6,0.7,29.85,NNW,338,0.9,0.9,43,0.00,,,0.00,VWS V14.01,2013-03-17 05:27:00,
2013-03-17 01:30:00,17.1,0.3,29.85,NNW,338,0.0,0.9,47,0.00,,,0.00,VWS V14.01,2013-03-17 05:30:00,
2013-03-17 01:32:00,19.2,0.9,29.85,NNW,338,1.3,1.3,44,0.00,,,0.00,VWS V14.01,2013-03-17 05:32:00,
2013-03-17 01:37:00,19.0,1.2,29.85,NNW,338,1.6,2.0,45,0.00,,,0.00,VWS V14.01,2013-03-17 05:37:00,
2013-03-17 01:42:00,18.9,1.0,29.85,NNW,338,0.0,1.3,45,0.00,,,0.00,VWS V14.01,2013-03-17 05:42:00,
2013-03-17 01:47:00,18.7,0.9,29.88,NNW,338,0.0,0.0,45,0.00,,,0.00,VWS V14.01,2013-03-17 05:47:00,
2013-03-17 01:52:00,18.1,0.4,29.88,NNW,338,0.0,0.0,45,0.00,,,0.00,VWS V14.01,2013-03-17 05:52:00,
2013-03-17 01:57:00,17.6,0.3,29.88,NNW,338,0.0,0.0,46,0.00,,,0.00,VWS V14.01,2013-03-17 05:57:00,
2013-03-17 02:00:00,16.2,0.4,29.85,NNW,338,1.3,1.6,49,0.00,,,0.00,VWS V14.01,2013-03-17 06:00:00,
2013-03-17 02:02:00,17.4,0.6,29.88,NNW,338,0.0,0.0,47,0.00,,,0.00,VWS V14.01,2013-03-17 06:02:00,
2013-03-17 02:07:00,17.1,-0.1,29.88,NNW,338,0.0,0.0,46,0.00,,,0.00,VWS V14.01,2013-03-17 06:07:00,
2013-03-17 02:12:00,17.1,-0.1,29.88,NNW,338,0.9,1.3,46,0.00,,,0.00,VWS V14.01,2013-03-17 06:12:00,
2013-03-17 02:17:00,17.1,-0.1,29.85,NNW,338,0.0,0.0,46,0.00,,,0.00,VWS V14.01,2013-03-17 06:17:00,
2013-03-17 02:22:00,17.1,-0.1,29.85,NNW,338,0.9,2.0,46,0.00,,,0.00,VWS V14.01,2013-03-17 06:22:00,
2013-03-17 02:28:00,16.9,0.2,29.85,NNW,338,0.0,0.0,47,0.00,,,0.00,VWS V14.01,2013-03-17 06:28:00,
2013-03-17 02:30:00,15.6,1.5,29.85,NNW,338,0.0,0.0,53,0.00,,,0.00,VWS V14.01,2013-03-17 06:30:00,
2013-03-17 02:33:00,16.9,0.2,29.88,NNW,338,0.0,0.0,47,0.00,,,0.00,VWS V14.01,2013-03-17 06:33:00,
2013-03-17 02:38:00,16.7,0.4,29.88,NNW,338,0.0,0.0,48,0.00,,,0.00,VWS V14.01,2013-03-17 06:38:00,
2013-03-17 02:43:00,16.3,0.5,29.88,NNW,338,0.0,0.0,49,0.00,,,0.00,VWS V14.01,2013-03-17 06:43:00,
2013-03-17 02:48:00,16.0,0.6,29.85,NNW,338,0.0,0.0,50,0.00,,,0.00,VWS V14.01,2013-03-17 06:48:00,
2013-03-17 02:53:00,16.2,-0.1,29.85,NNW,338,1.6,2.0,48,0.00,,,0.00,VWS V14.01,2013-03-17 06:53:00,
2013-03-17 02:58:00,16.2,0.8,29.85,NNW,338,0.0,0.0,50,0.00,,,0.00,VWS V14.01,2013-03-17 06:58:00,
2013-03-17 03:00:00,14.7,1.1,29.85,NNW,338,0.0,0.0,54,0.00,,,0.00,VWS V14.01,2013-03-17 07:00:00,
2013-03-17 03:03:00,16.2,1.2,29.85,NNW,338,1.3,1.3,51,0.00,,,0.00,VWS V14.01,2013-03-17 07:03:00,
2013-03-17 03:08:00,16.3,1.8,29.85,NNW,338,0.0,1.1,52,0.00,,,0.00,VWS V14.01,2013-03-17 07:08:00,
2013-03-17 03:13:00,16.2,2.0,29.85,NNW,338,0.0,0.0,53,0.00,,,0.00,VWS V14.01,2013-03-17 07:13:00,
2013-03-17 03:18:00,15.8,1.7,29.85,NNW,338,0.0,0.0,53,0.00,,,0.00,VWS V14.01,2013-03-17 07:18:00,
2013-03-17 03:23:00,15.6,1.5,29.85,NNW,338,0.0,0.0,53,0.00,,,0.00,VWS V14.01,2013-03-17 07:23:00,
2013-03-17 03:28:00,15.4,1.8,29.85,NNW,338,0.0,0.0,54,0.00,,,0.00,VWS V14.01,2013-03-17 07:28:00,
2013-03-17 03:30:00,14.4,1.2,29.85,NNW,338,0.0,0.0,55,0.00,,,0.00,VWS V14.01,2013-03-17 07:30:00,
2013-03-17 03:33:00,15.3,1.6,29.85,NNW,338,0.0,0.0,54,0.00,,,0.00,VWS V14.01,2013-03-17 07:33:00,
2013-03-17 03:38:00,15.4,1.4,29.85,NNW,338,0.0,0.0,53,0.00,,,0.00,VWS V14.01,2013-03-17 07:38:00,
2013-03-17 03:43:00,15.4,1.4,29.85,NNW,338,0.0,0.0,53,0.00,,,0.00,VWS V14.01,2013-03-17 07:43:00,
2013-03-17 03:48:00,15.1,1.4,29.85,NNW,338,0.0,0.0,54,0.00,,,0.00,VWS V14.01,2013-03-17 07:48:00,
2013-03-17 03:53:00,14.9,1.3,29.85,NNW,338,0.0,0.0,54,0.00,,,0.00,VWS V14.01,2013-03-17 07:53:00,
2013-03-17 03:58:00,14.5,0.9,29.85,NNW,338,0.0,0.0,54,0.00,,,0.00,VWS V14.01,2013-03-17 07:58:00,
2013-03-17 04:00:00,13.6,2.0,29.88,NNW,338,0.0,0.0,59,0.00,,,0.00,VWS V14.01,2013-03-17 08:00:00,
2013-03-17 04:03:00,14.7,1.1,29.85,NNW,338,1.3,1.3,54,0.00,,,0.00,VWS V14.01,2013-03-17 08:03:00,
2013-03-17 04:08:00,14.5,0.9,29.85,NNW,338,0.0,0.0,54,0.00,,,0.00,VWS V14.01,2013-03-17 08:08:00,
2013-03-17 04:13:00,14.2,1.0,29.85,NNW,338,0.0,0.0,55,0.00,,,0.00,VWS V14.01,2013-03-17 08:13:00,
2013-03-17 04:18:00,14.2,1.0,29.85,NNW,338,1.6,1.6,55,0.00,,,0.00,VWS V14.01,2013-03-17 08:18:00,
2013-03-17 04:23:00,14.4,1.2,29.85,NNW,338,0.0,0.0,55,0.00,,,0.00,VWS V14.01,2013-03-17 08:23:00,
2013-03-17 04:28:00,14.2,1.0,29.85,NNW,338,1.3,1.6,55,0.00,,,0.00,VWS V14.01,2013-03-17 08:28:00,
2013-03-17 04:30:00,12.7,1.1,29.91,NNW,338,0.0,0.0,59,0.00,,,0.00,VWS V14.01,2013-03-17 08:30:00,
2013-03-17 04:33:00,14.2,1.4,29.88,NNW,338,0.0,0.0,56,0.00,,,0.00,VWS V14.01,2013-03-17 08:33:00,
2013-03-17 04:38:00,13.8,1.0,29.88,NNW,338,0.0,0.0,56,0.00,,,0.00,VWS V14.01,2013-03-17 08:38:00,
2013-03-17 04:43:00,14.0,2.0,29.88,NNW,338,2.0,2.5,58,0.00,,,0.00,VWS V14.01,2013-03-17 08:43:00,
2013-03-17 04:48:00,14.0,2.3,29.88,NNW,338,2.0,2.2,59,0.00,,,0.00,VWS V14.01,2013-03-17 08:48:00,
2013-03-17 04:53:00,13.8,2.2,29.88,NNW,338,0.0,0.0,59,0.00,,,0.00,VWS V14.01,2013-03-17 08:53:00,
2013-03-17 04:58:00,13.5,1.8,29.88,NNW,338,0.0,0.0,59,0.00,,,0.00,VWS V14.01,2013-03-17 08:58:00,
2013-03-17 05:00:00,12.0,0.4,29.91,NNW,338,0.0,0.0,59,0.00,,,0.00,VWS V14.01,2013-03-17 09:00:00,
2013-03-17 05:03:00,13.3,1.6,29.88,NNW,338,0.0,0.0,59,0.00,,,0.00,VWS V14.01,2013-03-17 09:03:00,
2013-03-17 05:08:00,13.3,1.6,29.88,NNW,338,0.0,0.0,59,0.00,,,0.00,VWS V14.01,2013-03-17 09:08:00,
2013-03-17 05:13:00,13.3,1.6,29.88,NNW,338,0.0,0.0,59,0.00,,,0.00,VWS V14.01,2013-03-17 09:13:00,
2013-03-17 05:18:00,12.9,1.3,29.91,NNW,338,0.0,0.0,59,0.00,,,0.00,VWS V14.01,2013-03-17 09:18:00,
2013-03-17 05:23:00,12.7,1.1,29.91,NNW,338,0.0,0.0,59,0.00,,,0.00,VWS V14.01,2013-03-17 09:23:00,
2013-03-17 05:28:00,12.7,1.1,29.91,NNW,338,0.0,0.0,59,0.00,,,0.00,VWS V14.01,2013-03-17 09:28:00,
2013-03-17 05:30:00,11.3,-0.2,29.91,NNW,338,0.0,0.0,59,0.00,,,0.00,VWS V14.01,2013-03-17 09:30:00,
2013-03-17 05:33:00,12.6,1.0,29.91,NNW,338,0.0,0.0,59,0.00,,,0.00,VWS V14.01,2013-03-17 09:33:00,
2013-03-17 05:38:00,12.4,0.8,29.91,NNW,338,0.0,0.0,59,0.00,,,0.00,VWS V14.01,2013-03-17 09:38:00,
2013-03-17 05:43:00,12.2,0.6,29.91,NNW,338,0.0,0.0,59,0.00,,,0.00,VWS V14.01,2013-03-17 09:43:00,
2013-03-17 05:48:00,12.2,0.6,29.91,NNW,338,0.0,0.0,59,0.00,,,0.00,VWS V14.01,2013-03-17 09:48:00,
2013-03-17 05:54:00,12.0,0.4,29.91,NNW,338,0.0,0.0,59,0.00,,,0.00,VWS V14.01,2013-03-17 09:54:00,
2013-03-17 05:59:00,11.8,0.3,29.91,NNW,338,0.0,0.0,59,0.00,,,0.00,VWS V14.01,2013-03-17 09:59:00,
2013-03-17 06:00:00,11.3,-0.2,29.91,NNW,338,0.0,0.0,59,0.00,,,0.00,VWS V14.01,2013-03-17 10:00:00,
2013-03-17 06:04:00,11.8,0.3,29.91,NNW,338,0.0,0.0,59,0.00,,,0.00,VWS V14.01,2013-03-17 10:04:00,
2013-03-17 06:09:00,11.7,0.1,29.91,NNW,338,0.0,0.0,59,0.00,,,0.00,VWS V14.01,2013-03-17 10:09:00,
2013-03-17 06:14:00,11.7,0.1,29.91,NNW,338,0.0,0.0,59,0.00,,,0.00,VWS V14.01,2013-03-17 10:14:00,
2013-03-17 06:19:00,11.5,-0.1,29.91,NNW,338,0.0,0.0,59,0.00,,,0.00,VWS V14.01,2013-03-17 10:19:00,
2013-03-17 06:24:00,11.3,-0.2,29.91,NNW,338,0.0,0.0,59,0.00,,,0.00,VWS V14.01,2013-03-17 10:24:00,
2013-03-17 06:29:00,11.1,-0.4,29.91,NNW,338,0.0,0.0,59,0.00,,,0.00,VWS V14.01,2013-03-17 10:29:00,
2013-03-17 06:30:00,12.6,1.0,29.91,NNW,338,0.0,0.0,59,0.00,,,0.00,VWS V14.01,2013-03-17 10:30:00,
2013-03-17 06:34:00,11.3,-0.2,29.91,NNW,338,0.0,0.0,59,0.00,,,0.00,VWS V14.01,2013-03-17 10:34:00,
2013-03-17 06:39:00,11.1,-0.4,29.91,NNW,338,0.0,0.0,59,0.00,,,0.00,VWS V14.01,2013-03-17 10:39:00,
2013-03-17 06:44:00,11.1,-0.4,29.91,NNW,338,0.0,0.0,59,0.00,,,0.00,VWS V14.01,2013-03-17 10:44:00,
2013-03-17 06:49:00,11.3,-0.2,29.91,NNW,338,0.0,0.0,59,0.00,,,0.00,VWS V14.01,2013-03-17 10:49:00,
2013-03-17 06:54:00,11.3,-0.2,29.91,NNW,338,0.0,0.0,59,0.00,,,0.00,VWS V14.01,2013-03-17 10:54:00,
2013-03-17 06:59:00,11.5,-0.1,29.91,NNW,338,0.0,0.0,59,0.00,,,0.00,VWS V14.01,2013-03-17 10:59:00,
2013-03-17 07:00:00,15.4,5.8,29.91,NNW,338,2.7,2.7,65,0.00,,,0.00,VWS V14.01,2013-03-17 11:00:00,
2013-03-17 07:04:00,11.7,0.1,29.91,NNW,338,0.0,0.0,59,0.00,,,0.00,VWS V14.01,2013-03-17 11:04:00,
2013-03-17 07:09:00,11.8,0.3,29.91,NNW,338,0.0,0.0,59,0.00,,,0.00,VWS V14.01,2013-03-17 11:09:00,
2013-03-17 07:14:00,12.0,0.4,29.91,NNW,338,0.0,1.6,59,0.00,,,0.00,VWS V14.01,2013-03-17 11:14:00,
2013-03-17 07:19:00,12.2,0.6,29.91,NNW,338,0.0,0.0,59,0.00,,,0.00,VWS V14.01,2013-03-17 11:19:00,
2013-03-17 07:24:00,12.6,1.0,29.91,NNW,338,0.0,0.0,59,0.00,,,0.00,VWS V14.01,2013-03-17 11:24:00,
2013-03-17 07:29:00,12.7,1.1,29.91,NNW,338,0.0,0.0,59,0.00,,,0.00,VWS V14.01,2013-03-17 11:29:00,
2013-03-17 07:30:00,18.1,5.5,29.91,NNW,338,3.6,3.6,57,0.00,,,0.00,VWS V14.01,2013-03-17 11:30:00,
2013-03-17 07:34:00,13.3,1.6,29.91,NNW,338,1.3,2.2,59,0.00,,,0.00,VWS V14.01,2013-03-17 11:34:00,
2013-03-17 07:39:00,13.6,2.0,29.91,NNW,338,1.6,1.6,59,0.00,,,0.00,VWS V14.01,2013-03-17 11:39:00,
2013-03-17 07:44:00,14.2,4.9,29.91,NNW,338,0.0,0.0,66,0.00,,,0.00,VWS V14.01,2013-03-17 11:44:00,
2013-03-17 07:49:00,14.9,5.3,29.91,NNW,338,2.0,2.0,65,0.00,,,0.00,VWS V14.01,2013-03-17 11:49:00,
2013-03-17 07:54:00,15.3,5.6,29.91,NNW,338,1.6,2.7,65,0.00,,,0.00,VWS V14.01,2013-03-17 11:54:00,
2013-03-17 07:59:00,15.8,6.5,29.91,NNW,338,1.6,2.9,66,0.00,,,0.00,VWS V14.01,2013-03-17 11:59:00,
2013-03-17 08:00:00,21.6,3.5,29.91,NNW,338,3.6,3.6,45,0.00,,,0.00,VWS V14.01,2013-03-17 12:00:00,
2013-03-17 08:04:00,16.3,6.3,29.91,NNW,338,2.7,2.7,64,0.00,,,0.00,VWS V14.01,2013-03-17 12:04:00,
2013-03-17 08:09:00,16.7,6.3,29.91,NNW,338,2.0,2.7,63,0.00,,,0.00,VWS V14.01,2013-03-17 12:09:00,
2013-03-17 08:14:00,16.9,6.1,29.91,NNW,338,2.7,3.4,62,0.00,,,0.00,VWS V14.01,2013-03-17 12:14:00,
2013-03-17 08:19:00,17.6,5.7,29.91,NNW,338,3.1,3.1,59,0.00,,,0.00,VWS V14.01,2013-03-17 12:19:00,
2013-03-17 08:24:00,18.1,5.5,29.91,NNW,338,3.6,3.6,57,0.00,,,0.00,VWS V14.01,2013-03-17 12:24:00,
2013-03-17 08:29:00,18.7,5.2,29.91,NNW,338,3.1,4.3,55,0.00,,,0.00,VWS V14.01,2013-03-17 12:29:00,
2013-03-17 08:30:00,26.8,0.2,29.91,WNW,292,8.7,10.7,31,0.00,,,0.00,VWS V14.01,2013-03-17 12:30:00,
2013-03-17 08:34:00,19.6,5.2,29.88,NW,315,6.0,6.0,53,0.00,,,0.00,VWS V14.01,2013-03-17 12:34:00,
2013-03-17 08:39:00,20.1,4.5,29.88,NNW,338,2.9,5.6,50,0.00,,,0.00,VWS V14.01,2013-03-17 12:39:00,
2013-03-17 08:44:00,20.5,3.5,29.88,NNW,338,8.5,8.5,47,0.00,,,0.00,VWS V14.01,2013-03-17 12:44:00,
2013-03-17 08:49:00,20.8,3.3,29.91,NW,315,4.9,4.9,46,0.00,,,0.00,VWS V14.01,2013-03-17 12:49:00,
2013-03-17 08:54:00,21.6,3.5,29.91,NNW,338,3.6,3.6,45,0.00,,,0.00,VWS V14.01,2013-03-17 12:54:00,
2013-03-17 08:59:00,22.1,3.0,29.91,NNW,338,6.0,7.6,43,0.00,,,0.00,VWS V14.01,2013-03-17 12:59:00,
2013-03-17 09:00:00,27.9,1.2,29.91,NW,315,5.4,14.8,31,0.00,,,0.00,VWS V14.01,2013-03-17 13:00:00,
2013-03-17 09:04:00,23.2,3.5,29.91,WNW,292,10.1,10.1,42,0.00,,,0.00,VWS V14.01,2013-03-17 13:04:00,
2013-03-17 09:09:00,24.3,4.0,29.91,NNW,338,8.7,8.7,41,0.00,,,0.00,VWS V14.01,2013-03-17 13:09:00,
2013-03-17 09:14:00,25.7,2.5,29.91,NW,315,10.7,10.7,36,0.00,,,0.00,VWS V14.01,2013-03-17 13:14:00,
2013-03-17 09:19:00,26.1,0.2,29.91,NNW,338,8.1,10.7,32,0.00,,,0.00,VWS V14.01,2013-03-17 13:19:00,
2013-03-17 09:24:00,26.8,0.2,29.91,WNW,292,8.7,10.7,31,0.00,,,0.00,VWS V14.01,2013-03-17 13:24:00,
2013-03-17 09:29:00,26.4,0.6,29.91,WNW,292,6.0,10.5,32,0.00,,,0.00,VWS V14.01,2013-03-17 13:29:00,
2013-03-17 09:30:00,28.2,1.5,29.91,North,0,14.8,14.8,31,0.00,,,0.00,VWS V14.01,2013-03-17 13:30:00,
2013-03-17 09:34:00,26.6,0.7,29.91,NNW,338,5.8,10.1,32,0.00,,,0.00,VWS V14.01,2013-03-17 13:34:00,
2013-03-17 09:39:00,28.2,2.2,29.91,WNW,292,2.9,2.9,32,0.00,,,0.00,VWS V14.01,2013-03-17 13:39:00,
2013-03-17 09:45:00,28.6,1.8,29.91,NNW,338,7.8,7.8,31,0.00,,,0.00,VWS V14.01,2013-03-17 13:45:00,
2013-03-17 09:50:00,28.6,1.8,29.91,NW,315,9.6,12.8,31,0.00,,,0.00,VWS V14.01,2013-03-17 13:50:00,
2013-03-17 09:55:00,27.9,1.2,29.91,NW,315,6.5,14.8,31,0.00,,,0.00,VWS V14.01,2013-03-17 13:55:00,
2013-03-17 10:00:00,28.0,1.3,29.91,NNW,338,11.4,11.4,31,0.00,,,0.00,VWS V14.01,2013-03-17 14:00:00,
2013-03-17 10:05:00,27.0,0.4,29.91,NNW,338,10.7,15.2,31,0.00,,,0.00,VWS V14.01,2013-03-17 14:05:00,
2013-03-17 10:10:00,27.3,0.7,29.91,WNW,292,8.5,14.5,31,0.00,,,0.00,VWS V14.01,2013-03-17 14:10:00,
2013-03-17 10:15:00,27.9,1.2,29.91,NNW,338,16.1,16.1,31,0.00,,,0.00,VWS V14.01,2013-03-17 14:15:00,
2013-03-17 10:20:00,28.0,1.3,29.91,NW,315,7.6,10.7,31,0.00,,,0.00,VWS V14.01,2013-03-17 14:20:00,
2013-03-17 10:25:00,28.2,1.5,29.91,NNW,338,8.5,15.2,31,0.00,,,0.00,VWS V14.01,2013-03-17 14:25:00,
2013-03-17 10:30:00,27.7,1.0,29.91,NNW,338,9.6,12.1,31,0.00,,,0.00,VWS V14.01,2013-03-17 14:30:00,
2013-03-17 10:35:00,27.7,1.0,29.91,NW,315,7.4,11.0,31,0.00,,,0.00,VWS V14.01,2013-03-17 14:35:00,
2013-03-17 10:40:00,27.7,-1.2,29.91,NNW,338,12.5,12.5,28,0.00,,,0.00,VWS V14.01,2013-03-17 14:40:00,
2013-03-17 10:45:00,27.7,1.0,29.94,NW,315,9.8,12.8,31,0.00,,,0.00,VWS V14.01,2013-03-17 14:45:00,
2013-03-17 10:50:00,28.0,1.3,29.94,NW,315,8.1,12.8,31,0.00,,,0.00,VWS V14.01,2013-03-17 14:50:00,
2013-03-17 10:55:00,27.3,0.7,29.94,NNW,338,6.5,10.7,31,0.00,,,0.00,VWS V14.01,2013-03-17 14:55:00,
2013-03-17 11:00:00,27.7,1.0,29.91,NW,315,6.5,14.5,31,0.00,,,0.00,VWS V14.01,2013-03-17 15:00:00,
2013-03-17 11:05:00,27.7,1.0,29.91,NNW,338,7.8,13.2,31,0.00,,,0.00,VWS V14.01,2013-03-17 15:05:00,
2013-03-17 11:10:00,28.0,1.3,29.91,West,270,11.0,11.0,31,0.00,,,0.00,VWS V14.01,2013-03-17 15:10:00,
2013-03-17 11:15:00,28.9,1.4,29.91,NNW,338,9.2,10.7,30,0.00,,,0.00,VWS V14.01,2013-03-17 15:15:00,
2013-03-17 11:20:00,30.0,2.3,29.91,NNW,338,8.7,11.0,30,0.00,,,0.00,VWS V14.01,2013-03-17 15:20:00,
2013-03-17 11:25:00,30.2,2.5,29.91,North,0,10.5,12.3,30,0.00,,,0.00,VWS V14.01,2013-03-17 15:25:00,
2013-03-17 11:30:00,29.7,0.6,29.94,NNW,338,8.1,13.0,28,0.00,,,0.00,VWS V14.01,2013-03-17 15:30:00,
2013-03-17 11:35:00,31.3,2.0,29.94,WNW,292,3.8,10.1,28,0.00,,,0.00,VWS V14.01,2013-03-17 15:35:00,
2013-03-17 11:40:00,31.3,2.0,29.94,WNW,292,10.1,15.4,28,0.00,,,0.00,VWS V14.01,2013-03-17 15:40:00,
2013-03-17 11:45:00,29.7,-1.8,29.94,NNW,338,13.0,19.2,25,0.00,,,0.00,VWS V14.01,2013-03-17 15:45:00,
2013-03-17 11:50:00,29.1,-2.3,29.94,NW,315,11.0,13.0,25,0.00,,,0.00,VWS V14.01,2013-03-17 15:50:00,
2013-03-17 11:55:00,29.7,-1.8,29.94,NNW,338,10.3,16.8,25,0.00,,,0.00,VWS V14.01,2013-03-17 15:55:00,
2013-03-17 12:00:00,29.7,-1.8,29.94,NNW,338,13.0,13.0,25,0.00,,,0.00,VWS V14.01,2013-03-17 16:00:00,
2013-03-17 12:05:00,29.8,-1.7,29.94,WNW,292,14.8,14.8,25,0.00,,,0.00,VWS V14.01,2013-03-17 16:05:00,
2013-03-17 12:10:00,30.7,-0.9,29.94,WNW,292,15.9,18.1,25,0.00,,,0.00,VWS V14.01,2013-03-17 16:10:00,
2013-03-17 12:15:00,29.8,-1.7,29.97,NNW,338,10.3,14.8,25,0.00,,,0.00,VWS V14.01,2013-03-17 16:15:00,
2013-03-17 12:20:00,30.2,-1.4,29.97,NNW,338,23.9,23.9,25,0.00,,,0.00,VWS V14.01,2013-03-17 16:20:00,
2013-03-17 12:25:00,29.7,-1.8,29.97,NNW,338,17.7,23.3,25,0.00,,,0.00,VWS V14.01,2013-03-17 16:25:00,
2013-03-17 12:30:00,30.0,-1.5,29.97,NW,315,10.7,13.2,25,0.00,,,0.00,VWS V14.01,2013-03-17 16:30:00,
2013-03-17 12:36:00,29.7,-1.8,29.97,NNW,338,18.1,30.2,25,0.00,,,0.00,VWS V14.01,2013-03-17 16:36:00,
2013-03-17 12:41:00,29.7,-1.8,29.97,NNW,338,17.9,21.3,25,0.00,,,0.00,VWS V14.01,2013-03-17 16:41:00,
2013-03-17 12:46:00,29.8,-1.7,29.94,North,0,15.4,23.0,25,0.00,,,0.00,VWS V14.01,2013-03-17 16:46:00,
2013-03-17 12:51:00,29.1,-2.3,29.94,NNW,338,14.1,19.0,25,0.00,,,0.00,VWS V14.01,2013-03-17 16:51:00,
2013-03-17 12:56:00,30.0,-1.5,29.94,WNW,292,16.1,17.2,25,0.00,,,0.00,VWS V14.01,2013-03-17 16:56:00,
2013-03-17 13:00:00,27.5,-2.9,29.97,NNW,338,10.3,14.5,26,0.00,,,0.00,VWS V14.01,2013-03-17 17:00:00,
2013-03-17 13:01:00,30.0,-1.5,29.94,NW,315,17.2,17.5,25,0.00,,,0.00,VWS V14.01,2013-03-17 17:01:00,
2013-03-17 13:06:00,29.3,-3.9,29.94,NNW,338,15.2,16.8,23,0.00,,,0.00,VWS V14.01,2013-03-17 17:06:00,
2013-03-17 13:11:00,28.6,-2.8,29.94,NW,315,11.0,17.2,25,0.00,,,0.00,VWS V14.01,2013-03-17 17:11:00,
2013-03-17 13:16:00,28.9,-4.2,29.94,WNW,292,14.3,14.3,23,0.00,,,0.00,VWS V14.01,2013-03-17 17:16:00,
2013-03-17 13:21:00,30.9,-0.8,29.94,NW,315,10.1,13.0,25,0.00,,,0.00,VWS V14.01,2013-03-17 17:21:00,
2013-03-17 13:26:00,29.7,-1.8,29.94,NW,315,12.3,14.8,25,0.00,,,0.00,VWS V14.01,2013-03-17 17:26:00,
2013-03-17 13:30:00,27.3,-5.6,29.94,NNW,338,10.5,13.6,23,0.00,,,0.00,VWS V14.01,2013-03-17 17:30:00,
2013-03-17 13:31:00,29.3,-2.2,29.94,NW,315,8.7,12.8,25,0.00,,,0.00,VWS V14.01,2013-03-17 17:31:00,
2013-03-17 13:36:00,28.6,-2.8,29.94,NNW,338,12.5,13.2,25,0.00,,,0.00,VWS V14.01,2013-03-17 17:36:00,
2013-03-17 13:42:00,29.1,-2.3,29.94,North,0,12.3,16.6,25,0.00,,,0.00,VWS V14.01,2013-03-17 17:42:00,
2013-03-17 13:47:00,28.6,-2.8,29.97,NNW,338,10.3,12.5,25,0.00,,,0.00,VWS V14.01,2013-03-17 17:47:00,
2013-03-17 13:52:00,28.0,-2.4,29.97,NNW,338,11.9,14.5,26,0.00,,,0.00,VWS V14.01,2013-03-17 17:52:00,
2013-03-17 13:57:00,27.3,-3.0,29.97,North,0,8.1,10.7,26,0.00,,,0.00,VWS V14.01,2013-03-17 17:57:00,
2013-03-17 14:00:00,27.1,-5.7,29.97,NNW,338,14.8,14.8,23,0.00,,,0.00,VWS V14.01,2013-03-17 18:00:00,
2013-03-17 14:02:00,27.3,-3.0,29.94,NNW,338,17.5,17.5,26,0.00,,,0.00,VWS V14.01,2013-03-17 18:02:00,
2013-03-17 14:07:00,27.1,-3.2,29.94,NW,315,17.5,17.5,26,0.00,,,0.00,VWS V14.01,2013-03-17 18:07:00,
2013-03-17 14:12:00,27.5,-2.9,29.94,NNW,338,8.5,10.1,26,0.00,,,0.00,VWS V14.01,2013-03-17 18:12:00,
2013-03-17 14:17:00,27.9,-2.6,29.94,NNW,338,10.7,10.7,26,0.00,,,0.00,VWS V14.01,2013-03-17 18:17:00,
2013-03-17 14:22:00,27.7,-2.7,29.94,NNW,338,13.2,14.5,26,0.00,,,0.00,VWS V14.01,2013-03-17 18:22:00,
2013-03-17 14:27:00,27.0,-3.3,29.94,NNW,338,15.2,15.2,26,0.00,,,0.00,VWS V14.01,2013-03-17 18:27:00,
2013-03-17 14:30:00,26.6,-5.3,30.00,NW,315,10.7,10.7,24,0.00,,,0.00,VWS V14.01,2013-03-17 18:30:00,
2013-03-17 14:32:00,27.0,-5.9,29.97,NNW,338,11.0,11.0,23,0.00,,,0.00,VWS V14.01,2013-03-17 18:32:00,
2013-03-17 14:37:00,27.0,-5.9,29.97,NNE,22,12.8,15.4,23,0.00,,,0.00,VWS V14.01,2013-03-17 18:37:00,
2013-03-17 14:42:00,28.0,-2.4,29.97,WNW,292,19.2,19.2,26,0.00,,,0.00,VWS V14.01,2013-03-17 18:42:00,
2013-03-17 14:47:00,27.3,-5.6,29.97,NW,315,12.3,16.6,23,0.00,,,0.00,VWS V14.01,2013-03-17 18:47:00,
2013-03-17 14:52:00,27.0,-5.9,29.97,North,0,11.2,11.2,23,0.00,,,0.00,VWS V14.01,2013-03-17 18:52:00,
2013-03-17 14:57:00,27.3,-5.6,29.97,NNW,338,14.8,14.8,23,0.00,,,0.00,VWS V14.01,2013-03-17 18:57:00,
2013-03-17 15:00:00,26.6,-5.3,29.97,WNW,292,12.1,12.1,24,0.00,,,0.00,VWS V14.01,2013-03-17 19:00:00,
2013-03-17 15:02:00,28.0,-5.0,29.97,WNW,292,12.8,12.8,23,0.00,,,0.00,VWS V14.01,2013-03-17 19:02:00,
2013-03-17 15:07:00,28.2,-4.8,29.97,NW,315,10.7,19.2,23,0.00,,,0.00,VWS V14.01,2013-03-17 19:07:00,
2013-03-17 15:12:00,28.2,-4.8,29.97,NW,315,10.7,10.7,23,0.00,,,0.00,VWS V14.01,2013-03-17 19:12:00,
2013-03-17 15:17:00,28.2,-4.8,30.00,NW,315,10.7,10.7,23,0.00,,,0.00,VWS V14.01,2013-03-17 19:17:00,
2013-03-17 15:22:00,26.6,-5.3,30.00,NW,315,10.7,10.7,24,0.00,,,0.00,VWS V14.01,2013-03-17 19:22:00,
2013-03-17 15:27:00,27.0,-5.9,30.00,NW,315,10.7,10.7,23,0.00,,,0.00,VWS V14.01,2013-03-17 19:27:00,
2013-03-17 15:30:00,26.6,-5.3,29.97,WNW,292,12.1,12.1,24,0.00,,,0.00,VWS V14.01,2013-03-17 19:30:00,
2013-03-17 15:32:00,27.0,-5.9,29.97,WNW,292,12.1,12.1,23,0.00,,,0.00,VWS V14.01,2013-03-17 19:32:00,
2013-03-17 15:38:00,27.0,-5.9,29.97,WNW,292,12.1,12.1,23,0.00,,,0.00,VWS V14.01,2013-03-17 19:38:00,
2013-03-17 15:43:00,27.0,-5.9,29.97,WNW,292,12.1,12.1,23,0.00,,,0.00,VWS V14.01,2013-03-17 19:43:00,
2013-03-17 15:48:00,27.0,-5.9,29.97,WNW,292,12.1,12.1,23,0.00,,,0.00,VWS V14.01,2013-03-17 19:48:00,
2013-03-17 15:53:00,26.6,-5.3,29.97,WNW,292,12.1,12.1,24,0.00,,,0.00,VWS V14.01,2013-03-17 19:53:00,
2013-03-17 15:58:00,26.6,-5.3,29.97,WNW,292,12.1,12.1,24,0.00,,,0.00,VWS V14.01,2013-03-17 19:58:00,
2013-03-17 16:00:00,26.2,-5.6,30.00,WNW,292,12.1,12.1,24,0.00,,,0.00,VWS V14.01,2013-03-17 20:00:00,
2013-03-17 16:03:00,26.6,-5.3,29.97,WNW,292,12.1,12.1,24,0.00,,,0.00,VWS V14.01,2013-03-17 20:03:00,
2013-03-17 16:08:00,26.6,-5.3,29.97,WNW,292,12.1,12.1,24,0.00,,,0.00,VWS V14.01,2013-03-17 20:08:00,
2013-03-17 16:13:00,26.6,-5.3,29.97,WNW,292,12.1,12.1,24,0.00,,,0.00,VWS V14.01,2013-03-17 20:13:00,
2013-03-17 16:18:00,26.8,-6.0,29.97,WNW,292,12.1,12.1,23,0.00,,,0.00,VWS V14.01,2013-03-17 20:18:00,
2013-03-17 16:23:00,27.0,-5.9,29.97,WNW,292,12.1,12.1,23,0.00,,,0.00,VWS V14.01,2013-03-17 20:23:00,
2013-03-17 16:28:00,26.6,-5.3,29.97,WNW,292,12.1,12.1,24,0.00,,,0.00,VWS V14.01,2013-03-17 20:28:00,
2013-03-17 16:30:00,26.1,-5.8,30.00,WNW,292,12.1,12.1,24,0.00,,,0.00,VWS V14.01,2013-03-17 20:30:00,
2013-03-17 16:33:00,26.6,-5.3,29.97,WNW,292,12.1,12.1,24,0.00,,,0.00,VWS V14.01,2013-03-17 20:33:00,
2013-03-17 16:38:00,26.8,-6.0,29.97,WNW,292,12.1,12.1,23,0.00,,,0.00,VWS V14.01,2013-03-17 20:38:00,
2013-03-17 16:43:00,26.8,-6.0,29.97,WNW,292,12.1,12.1,23,0.00,,,0.00,VWS V14.01,2013-03-17 20:43:00,
2013-03-17 16:48:00,26.8,-6.0,30.00,WNW,292,12.1,12.1,23,0.00,,,0.00,VWS V14.01,2013-03-17 20:48:00,
2013-03-17 16:53:00,26.2,-5.6,30.00,WNW,292,12.1,12.1,24,0.00,,,0.00,VWS V14.01,2013-03-17 20:53:00,
2013-03-17 16:58:00,26.2,-5.6,30.00,WNW,292,12.1,12.1,24,0.00,,,0.00,VWS V14.01,2013-03-17 20:58:00,
2013-03-17 17:00:00,26.1,-5.8,30.03,WNW,292,12.1,12.1,24,0.00,,,0.00,VWS V14.01,2013-03-17 21:00:00,
2013-03-17 17:03:00,26.1,-5.8,30.00,WNW,292,12.1,12.1,24,0.00,,,0.00,VWS V14.01,2013-03-17 21:03:00,
2013-03-17 17:08:00,26.2,-5.6,30.00,WNW,292,12.1,12.1,24,0.00,,,0.00,VWS V14.01,2013-03-17 21:08:00,
2013-03-17 17:13:00,26.2,-5.6,30.00,WNW,292,12.1,12.1,24,0.00,,,0.00,VWS V14.01,2013-03-17 21:13:00,
2013-03-17 17:18:00,26.4,-5.5,30.00,WNW,292,12.1,12.1,24,0.00,,,0.00,VWS V14.01,2013-03-17 21:18:00,
2013-03-17 17:23:00,26.1,-5.8,30.00,WNW,292,12.1,12.1,24,0.00,,,0.00,VWS V14.01,2013-03-17 21:23:00,
2013-03-17 17:28:00,26.1,-5.8,30.00,WNW,292,12.1,12.1,24,0.00,,,0.00,VWS V14.01,2013-03-17 21:28:00,
2013-03-17 17:30:00,24.1,-7.5,30.03,WNW,292,12.1,12.1,24,0.00,,,0.00,VWS V14.01,2013-03-17 21:30:00,
2013-03-17 17:33:00,26.4,-5.5,30.03,WNW,292,12.1,12.1,24,0.00,,,0.00,VWS V14.01,2013-03-17 21:33:00,
2013-03-17 17:38:00,26.4,-5.5,30.03,WNW,292,12.1,12.1,24,0.00,,,0.00,VWS V14.01,2013-03-17 21:38:00,
2013-03-17 17:43:00,26.2,-5.6,30.03,WNW,292,12.1,12.1,24,0.00,,,0.00,VWS V14.01,2013-03-17 21:43:00,
2013-03-17 17:48:00,26.1,-5.8,30.03,WNW,292,12.1,12.1,24,0.00,,,0.00,VWS V14.01,2013-03-17 21:48:00,
2013-03-17 17:53:00,26.1,-5.8,30.03,WNW,292,12.1,12.1,24,0.00,,,0.00,VWS V14.01,2013-03-17 21:53:00,
2013-03-17 17:58:00,26.1,-5.8,30.03,WNW,292,12.1,12.1,24,0.00,,,0.00,VWS V14.01,2013-03-17 21:58:00,
2013-03-17 18:00:00,23.7,-7.8,30.09,WNW,292,12.1,12.1,24,0.00,,,0.00,VWS V14.01,2013-03-17 22:00:00,
2013-03-17 18:03:00,26.1,-5.8,30.03,WNW,292,12.1,12.1,24,0.00,,,0.00,VWS V14.01,2013-03-17 22:03:00,
2013-03-17 18:08:00,25.3,-6.4,30.03,WNW,292,12.1,12.1,24,0.00,,,0.00,VWS V14.01,2013-03-17 22:08:00,
2013-03-17 18:13:00,24.8,-6.9,30.03,WNW,292,12.1,12.1,24,0.00,,,0.00,VWS V14.01,2013-03-17 22:13:00,
2013-03-17 18:18:00,24.8,-6.9,30.03,WNW,292,12.1,12.1,24,0.00,,,0.00,VWS V14.01,2013-03-17 22:18:00,
2013-03-17 18:23:00,24.1,-7.5,30.03,WNW,292,12.1,12.1,24,0.00,,,0.00,VWS V14.01,2013-03-17 22:23:00,
2013-03-17 18:28:00,24.1,-7.5,30.03,WNW,292,12.1,12.1,24,0.00,,,0.00,VWS V14.01,2013-03-17 22:28:00,
2013-03-17 18:30:00,23.7,-7.8,30.09,WNW,292,12.1,12.1,24,0.00,,,0.00,VWS V14.01,2013-03-17 22:30:00,
2013-03-17 18:33:00,23.7,-7.8,30.09,WNW,292,12.1,12.1,24,0.00,,,0.00,VWS V14.01,2013-03-17 22:33:00,
2013-03-17 18:38:00,23.7,-7.8,30.09,WNW,292,12.1,12.1,24,0.00,,,0.00,VWS V14.01,2013-03-17 22:38:00,
2013-03-17 18:43:00,23.7,-7.8,30.09,WNW,292,12.1,12.1,24,0.00,,,0.00,VWS V14.01,2013-03-17 22:43:00,
2013-03-17 18:48:00,23.7,-7.8,30.09,WNW,292,12.1,12.1,24,0.00,,,0.00,VWS V14.01,2013-03-17 22:48:00,
2013-03-17 18:53:00,23.7,-7.8,30.09,WNW,292,12.1,12.1,24,0.00,,,0.00,VWS V14.01,2013-03-17 22:53:00,
2013-03-17 18:58:00,23.7,-7.8,30.09,WNW,292,12.1,12.1,24,0.00,,,0.00,VWS V14.01,2013-03-17 22:58:00,
2013-03-17 19:00:00,23.7,-7.8,30.12,WNW,292,12.1,12.1,24,0.00,,,0.00,VWS V14.01,2013-03-17 23:00:00,
2013-03-17 19:03:00,23.7,-7.8,30.09,WNW,292,12.1,12.1,24,0.00,,,0.00,VWS V14.01,2013-03-17 23:03:00,
2013-03-17 19:08:00,23.7,-7.8,30.09,WNW,292,12.1,12.1,24,0.00,,,0.00,VWS V14.01,2013-03-17 23:08:00,
2013-03-17 19:14:00,23.7,-7.8,30.09,WNW,292,12.1,12.1,24,0.00,,,0.00,VWS V14.01,2013-03-17 23:14:00,
2013-03-17 19:18:00,23.7,-7.8,30.09,WNW,292,12.1,12.1,24,0.00,,,0.00,VWS V14.01,2013-03-17 23:18:00,
2013-03-17 19:24:00,23.7,-7.8,30.09,WNW,292,12.1,12.1,24,0.00,,,0.00,VWS V14.01,2013-03-17 23:24:00,
2013-03-17 19:29:00,23.7,-7.8,30.09,WNW,292,12.1,12.1,24,0.00,,,0.00,VWS V14.01,2013-03-17 23:29:00,
2013-03-17 19:30:00,23.7,-7.8,30.15,WNW,292,12.1,12.1,24,0.00,,,0.00,VWS V14.01,2013-03-17 23:30:00,
2013-03-17 19:34:00,23.7,-7.8,30.12,WNW,292,12.1,12.1,24,0.00,,,0.00,VWS V14.01,2013-03-17 23:34:00,
2013-03-17 19:39:00,23.7,-7.8,30.12,WNW,292,12.1,12.1,24,0.00,,,0.00,VWS V14.01,2013-03-17 23:39:00,
2013-03-17 19:44:00,23.7,-7.8,30.12,WNW,292,12.1,12.1,24,0.00,,,0.00,VWS V14.01,2013-03-17 23:44:00,
2013-03-17 19:49:00,23.7,-7.8,30.12,WNW,292,12.1,12.1,24,0.00,,,0.00,VWS V14.01,2013-03-17 23:49:00,
2013-03-17 19:54:00,23.7,-7.8,30.12,WNW,292,12.1,12.1,24,0.00,,,0.00,VWS V14.01,2013-03-17 23:54:00,
2013-03-17 19:59:00,23.7,-7.8,30.12,WNW,292,12.1,12.1,24,0.00,,,0.00,VWS V14.01,2013-03-17 23:59:00,
2013-03-17 20:00:00,23.7,-7.8,30.18,WNW,292,12.1,12.1,24,0.00,,,0.00,VWS V14.01,2013-03-18 00:00:00,
2013-03-17 20:04:00,23.7,-7.8,30.12,WNW,292,12.1,12.1,24,0.00,,,0.00,VWS V14.01,2013-03-18 00:04:00,
2013-03-17 20:09:00,23.7,-7.8,30.12,WNW,292,12.1,12.1,24,0.00,,,0.00,VWS V14.01,2013-03-18 00:09:00,
2013-03-17 20:14:00,23.7,-7.8,30.12,WNW,292,12.1,12.1,24,0.00,,,0.00,VWS V14.01,2013-03-18 00:14:00,
2013-03-17 20:19:00,23.7,-7.8,30.15,WNW,292,12.1,12.1,24,0.00,,,0.00,VWS V14.01,2013-03-18 00:19:00,
2013-03-17 20:24:00,23.7,-7.8,30.15,WNW,292,12.1,12.1,24,0.00,,,0.00,VWS V14.01,2013-03-18 00:24:00,
2013-03-17 20:29:00,23.7,-7.8,30.15,WNW,292,12.1,12.1,24,0.00,,,0.00,VWS V14.01,2013-03-18 00:29:00,
2013-03-17 20:30:00,23.7,-7.8,30.18,WNW,292,12.1,12.1,24,0.00,,,0.00,VWS V14.01,2013-03-18 00:30:00,
2013-03-17 20:34:00,23.7,-7.8,30.15,WNW,292,12.1,12.1,24,0.00,,,0.00,VWS V14.01,2013-03-18 00:34:00,
2013-03-17 20:39:00,23.7,-7.8,30.15,WNW,292,12.1,12.1,24,0.00,,,0.00,VWS V14.01,2013-03-18 00:39:00,
2013-03-17 20:44:00,23.7,-7.8,30.15,WNW,292,12.1,12.1,24,0.00,,,0.00,VWS V14.01,2013-03-18 00:44:00,
2013-03-17 20:49:00,23.7,-7.8,30.18,WNW,292,12.1,12.1,24,0.00,,,0.00,VWS V14.01,2013-03-18 00:49:00,
2013-03-17 20:54:00,23.7,-7.8,30.18,WNW,292,12.1,12.1,24,0.00,,,0.00,VWS V14.01,2013-03-18 00:54:00,
2013-03-17 20:59:00,23.7,-7.8,30.18,WNW,292,12.1,12.1,24,0.00,,,0.00,VWS V14.01,2013-03-18 00:59:00,
2013-03-17 21:00:00,23.7,-7.8,30.21,WNW,292,12.1,12.1,24,0.00,,,0.00,VWS V14.01,2013-03-18 01:00:00,
2013-03-17 21:04:00,23.7,-7.8,30.18,WNW,292,12.1,12.1,24,0.00,,,0.00,VWS V14.01,2013-03-18 01:04:00,
2013-03-17 21:09:00,23.7,-7.8,30.18,WNW,292,12.1,12.1,24,0.00,,,0.00,VWS V14.01,2013-03-18 01:09:00,
2013-03-17 21:14:00,23.7,-7.8,30.18,WNW,292,12.1,12.1,24,0.00,,,0.00,VWS V14.01,2013-03-18 01:14:00,
2013-03-17 21:16:00,18.1,-11.8,30.21,SE,135,1.6,1.6,25,0.00,,,0.00,VWS V14.01,2013-03-18 01:16:00,
2013-03-17 21:17:00,18.1,-11.8,30.21,SE,135,1.6,1.6,25,0.00,,,0.00,VWS V14.01,2013-03-18 01:17:00,
2013-03-17 21:19:00,23.7,-7.8,30.18,WNW,292,12.1,12.1,24,0.00,,,0.00,VWS V14.01,2013-03-18 01:19:00,
2013-03-17 21:24:00,23.7,-7.8,30.18,WNW,292,12.1,12.1,24,0.00,,,0.00,VWS V14.01,2013-03-18 01:24:00,
2013-03-17 21:29:00,23.7,-7.8,30.18,WNW,292,12.1,12.1,24,0.00,,,0.00,VWS V14.01,2013-03-18 01:29:00,
2013-03-17 21:30:00,18.1,-11.8,30.21,SE,135,1.6,1.6,25,0.00,,,0.00,VWS V14.01,2013-03-18 01:30:00,
2013-03-17 21:34:00,23.7,-7.8,30.21,WNW,292,12.1,12.1,24,0.00,,,0.00,VWS V14.01,2013-03-18 01:34:00,
2013-03-17 21:39:00,23.7,-7.8,30.21,WNW,292,12.1,12.1,24,0.00,,,0.00,VWS V14.01,2013-03-18 01:39:00,
2013-03-17 21:44:00,23.7,-7.8,30.21,WNW,292,12.1,12.1,24,0.00,,,0.00,VWS V14.01,2013-03-18 01:44:00,
2013-03-17 21:49:00,23.7,-7.8,30.21,WNW,292,12.1,12.1,24,0.00,,,0.00,VWS V14.01,2013-03-18 01:49:00,
2013-03-17 21:54:00,23.7,-7.8,30.21,WNW,292,12.1,12.1,24,0.00,,,0.00,VWS V14.01,2013-03-18 01:54:00,
2013-03-17 21:59:00,18.5,-11.4,30.21,WNW,292,12.1,12.1,25,0.00,,,0.00,VWS V14.01,2013-03-18 01:59:00,
2013-03-17 22:00:00,17.2,-11.8,30.24,SE,135,1.6,1.6,26,0.00,,,0.00,VWS V14.01,2013-03-18 02:00:00,
2013-03-17 22:04:00,18.3,-11.6,30.21,WNW,292,12.1,12.1,25,0.00,,,0.00,VWS V14.01,2013-03-18 02:04:00,
2013-03-17 22:09:00,18.3,-11.6,30.21,WNW,292,12.1,12.1,25,0.00,,,0.00,VWS V14.01,2013-03-18 02:09:00,
2013-03-17 22:14:00,18.1,-11.8,30.21,SE,135,1.6,1.6,25,0.00,,,0.00,VWS V14.01,2013-03-18 02:14:00,
2013-03-17 22:16:00,18.1,-11.8,30.21,SE,135,1.6,1.6,25,0.00,,,0.00,VWS V14.01,2013-03-18 02:16:00,
2013-03-17 22:17:00,18.1,-11.8,30.21,SE,135,1.6,1.6,25,0.00,,,0.00,VWS V14.01,2013-03-18 02:17:00,
2013-03-17 22:19:00,18.1,-11.8,30.21,SE,135,1.6,1.6,25,0.00,,,0.00,VWS V14.01,2013-03-18 02:19:00,
2013-03-17 22:24:00,18.1,-11.8,30.21,SE,135,1.6,1.6,25,0.00,,,0.00,VWS V14.01,2013-03-18 02:24:00,
2013-03-17 22:29:00,17.8,-12.1,30.21,SE,135,1.6,1.6,25,0.00,,,0.00,VWS V14.01,2013-03-18 02:29:00,
2013-03-17 22:30:00,17.2,-11.8,30.24,SE,135,1.6,1.6,26,0.00,,,0.00,VWS V14.01,2013-03-18 02:30:00,
2013-03-17 22:34:00,17.8,-12.1,30.21,SE,135,1.6,1.6,25,0.00,,,0.00,VWS V14.01,2013-03-18 02:34:00,
2013-03-17 22:39:00,17.6,-11.4,30.21,SE,135,1.6,1.6,26,0.00,,,0.00,VWS V14.01,2013-03-18 02:39:00,
2013-03-17 22:44:00,17.6,-11.4,30.21,SE,135,1.6,1.6,26,0.00,,,0.00,VWS V14.01,2013-03-18 02:44:00,
2013-03-17 22:49:00,17.2,-11.8,30.24,SE,135,1.6,1.6,26,0.00,,,0.00,VWS V14.01,2013-03-18 02:49:00,
2013-03-17 22:54:00,17.2,-11.8,30.24,SE,135,1.6,1.6,26,0.00,,,0.00,VWS V14.01,2013-03-18 02:54:00,
2013-03-17 22:59:00,17.2,-11.8,30.24,SE,135,1.6,1.6,26,0.00,,,0.00,VWS V14.01,2013-03-18 02:59:00,
2013-03-17 23:00:00,17.2,-11.8,30.27,SE,135,1.6,1.6,26,0.00,,,0.00,VWS V14.01,2013-03-18 03:00:00,
2013-03-17 23:04:00,17.2,-11.8,30.24,SE,135,1.6,1.6,26,0.00,,,0.00,VWS V14.01,2013-03-18 03:04:00,
2013-03-17 23:05:00,17.2,-11.8,30.24,SE,135,1.6,1.6,26,0.00,,,0.00,VWS V14.01,2013-03-18 03:05:00,
2013-03-17 23:06:00,17.2,-11.8,30.24,SE,135,1.6,1.6,26,0.00,,,0.00,VWS V14.01,2013-03-18 03:06:00,
2013-03-17 23:07:00,17.2,-11.8,30.24,SE,135,1.6,1.6,26,0.00,,,0.00,VWS V14.01,2013-03-18 03:07:00,
2013-03-17 23:08:00,17.2,-11.8,30.24,SE,135,1.6,1.6,26,0.00,,,0.00,VWS V14.01,2013-03-18 03:08:00,
2013-03-17 23:09:00,17.2,-11.8,30.24,SE,135,1.6,1.6,26,0.00,,,0.00,VWS V14.01,2013-03-18 03:09:00,
2013-03-17 23:10:00,17.2,-11.8,30.24,SE,135,1.6,1.6,26,0.00,,,0.00,VWS V14.01,2013-03-18 03:10:00,
2013-03-17 23:11:00,17.2,-11.8,30.24,SE,135,1.6,1.6,26,0.00,,,0.00,VWS V14.01,2013-03-18 03:11:00,
2013-03-17 23:12:00,17.2,-11.8,30.24,SE,135,1.6,1.6,26,0.00,,,0.00,VWS V14.01,2013-03-18 03:12:00,
2013-03-17 23:13:00,17.2,-11.8,30.24,SE,135,1.6,1.6,26,0.00,,,0.00,VWS V14.01,2013-03-18 03:13:00,
2013-03-17 23:14:00,17.2,-11.8,30.24,SE,135,1.6,1.6,26,0.00,,,0.00,VWS V14.01,2013-03-18 03:14:00,
2013-03-17 23:15:00,17.2,-11.8,30.24,SE,135,1.6,1.6,26,0.00,,,0.00,VWS V14.01,2013-03-18 03:15:00,
2013-03-17 23:16:00,17.2,-11.8,30.24,SE,135,1.6,1.6,26,0.00,,,0.00,VWS V14.01,2013-03-18 03:16:00,
2013-03-17 23:17:00,17.2,-11.8,30.24,SE,135,1.6,1.6,26,0.00,,,0.00,VWS V14.01,2013-03-18 03:17:00,
2013-03-17 23:18:00,17.2,-11.8,30.24,SE,135,1.6,1.6,26,0.00,,,0.00,VWS V14.01,2013-03-18 03:18:00,
2013-03-17 23:19:00,17.2,-11.8,30.24,SE,135,1.6,1.6,26,0.00,,,0.00,VWS V14.01,2013-03-18 03:19:00,
2013-03-17 23:25:00,17.2,-11.8,30.24,SE,135,1.6,1.6,26,0.00,,,0.00,VWS V14.01,2013-03-18 03:25:00,
2013-03-17 23:30:00,17.2,-11.8,30.24,SE,135,1.6,1.6,26,0.00,,,0.00,VWS V14.01,2013-03-18 03:30:00,
2013-03-17 23:35:00,17.2,-11.8,30.24,SE,135,1.6,1.6,26,0.00,,,0.00,VWS V14.01,2013-03-18 03:35:00,
2013-03-17 23:40:00,17.2,-11.8,30.24,SE,135,1.6,1.6,26,0.00,,,0.00,VWS V14.01,2013-03-18 03:40:00,
2013-03-17 23:45:00,17.2,-11.8,30.27,SE,135,1.6,1.6,26,0.00,,,0.00,VWS V14.01,2013-03-18 03:45:00,
2013-03-17 23:50:00,17.2,-11.8,30.27,SE,135,1.6,1.6,26,0.00,,,0.00,VWS V14.01,2013-03-18 03:50:00,
2013-03-17 23:55:00,17.2,-11.8,30.27,SE,135,1.6,1.6,26,0.00,,,0.00,VWS V14.01,2013-03-18 03:55:00,